sensor_id;sensor_type;location;lat;lon;timestamp;P1;durP1;ratioP1;P2;durP2;ratioP2
64467;SDS011;50853;46.836;16.820;2023-11-19T00:00:57;2.92;;;2.05;;
64467;SDS011;50853;46.836;16.820;2023-11-19T00:03:22;3.17;;;2.25;;
64467;SDS011;50853;46.836;16.820;2023-11-19T00:05:48;3.05;;;2.00;;
64467;SDS011;50853;46.836;16.820;2023-11-19T00:08:15;3.67;;;2.03;;
64467;SDS011;50853;46.836;16.820;2023-11-19T00:10:41;3.88;;;2.10;;
64467;SDS011;50853;46.836;16.820;2023-11-19T00:13:07;3.13;;;2.10;;
64467;SDS011;50853;46.836;16.820;2023-11-19T00:15:33;3.45;;;2.30;;
64467;SDS011;50853;46.836;16.820;2023-11-19T00:17:58;5.03;;;2.20;;
64467;SDS011;50853;46.836;16.820;2023-11-19T00:20:24;4.70;;;2.28;;
64467;SDS011;50853;46.836;16.820;2023-11-19T00:22:50;3.40;;;2.33;;
64467;SDS011;50853;46.836;16.820;2023-11-19T00:25:19;3.00;;;1.92;;
64467;SDS011;50853;46.836;16.820;2023-11-19T00:27:49;3.60;;;2.00;;
64467;SDS011;50853;46.836;16.820;2023-11-19T00:32:42;2.97;;;2.20;;
64467;SDS011;50853;46.836;16.820;2023-11-19T00:35:08;3.75;;;2.33;;
64467;SDS011;50853;46.836;16.820;2023-11-19T00:37:39;3.92;;;2.00;;
64467;SDS011;50853;46.836;16.820;2023-11-19T00:40:05;3.65;;;2.30;;
64467;SDS011;50853;46.836;16.820;2023-11-19T00:42:31;4.18;;;2.40;;
64467;SDS011;50853;46.836;16.820;2023-11-19T00:44:57;3.72;;;2.42;;
64467;SDS011;50853;46.836;16.820;2023-11-19T00:47:23;4.63;;;2.50;;
64467;SDS011;50853;46.836;16.820;2023-11-19T00:49:49;3.47;;;2.22;;
64467;SDS011;50853;46.836;16.820;2023-11-19T00:52:15;3.35;;;2.50;;
64467;SDS011;50853;46.836;16.820;2023-11-19T00:54:41;2.88;;;2.03;;
64467;SDS011;50853;46.836;16.820;2023-11-19T00:57:08;3.35;;;2.30;;
64467;SDS011;50853;46.836;16.820;2023-11-19T00:59:33;3.70;;;2.35;;
64467;SDS011;50853;46.836;16.820;2023-11-19T01:01:59;3.88;;;2.17;;
64467;SDS011;50853;46.836;16.820;2023-11-19T01:04:32;4.07;;;2.38;;
64467;SDS011;50853;46.836;16.820;2023-11-19T01:07:00;4.25;;;2.17;;
64467;SDS011;50853;46.836;16.820;2023-11-19T01:09:29;3.75;;;2.00;;
64467;SDS011;50853;46.836;16.820;2023-11-19T01:11:57;4.10;;;2.22;;
64467;SDS011;50853;46.836;16.820;2023-11-19T01:14:25;3.33;;;2.17;;
64467;SDS011;50853;46.836;16.820;2023-11-19T01:16:52;3.08;;;2.08;;
64467;SDS011;50853;46.836;16.820;2023-11-19T01:19:19;3.58;;;2.30;;
64467;SDS011;50853;46.836;16.820;2023-11-19T01:21:52;3.75;;;2.25;;
64467;SDS011;50853;46.836;16.820;2023-11-19T01:24:18;3.08;;;2.10;;
64467;SDS011;50853;46.836;16.820;2023-11-19T01:26:44;3.15;;;1.95;;
64467;SDS011;50853;46.836;16.820;2023-11-19T01:29:13;3.22;;;2.08;;
64467;SDS011;50853;46.836;16.820;2023-11-19T01:31:40;4.55;;;2.10;;
64467;SDS011;50853;46.836;16.820;2023-11-19T01:34:06;3.65;;;2.50;;
64467;SDS011;50853;46.836;16.820;2023-11-19T01:36:33;3.42;;;2.38;;
64467;SDS011;50853;46.836;16.820;2023-11-19T01:38:59;3.83;;;2.53;;
64467;SDS011;50853;46.836;16.820;2023-11-19T01:41:25;4.05;;;2.20;;
64467;SDS011;50853;46.836;16.820;2023-11-19T01:43:50;5.25;;;2.83;;
64467;SDS011;50853;46.836;16.820;2023-11-19T01:46:16;3.90;;;2.15;;
64467;SDS011;50853;46.836;16.820;2023-11-19T01:48:43;4.50;;;2.40;;
64467;SDS011;50853;46.836;16.820;2023-11-19T01:51:11;3.90;;;2.20;;
64467;SDS011;50853;46.836;16.820;2023-11-19T01:53:38;5.82;;;2.33;;
64467;SDS011;50853;46.836;16.820;2023-11-19T01:56:06;3.47;;;2.20;;
64467;SDS011;50853;46.836;16.820;2023-11-19T01:58:35;2.90;;;1.95;;
64467;SDS011;50853;46.836;16.820;2023-11-19T02:03:33;3.47;;;2.20;;
64467;SDS011;50853;46.836;16.820;2023-11-19T02:05:59;3.08;;;2.20;;
64467;SDS011;50853;46.836;16.820;2023-11-19T02:08:25;3.38;;;2.10;;
64467;SDS011;50853;46.836;16.820;2023-11-19T02:10:52;3.72;;;2.40;;
64467;SDS011;50853;46.836;16.820;2023-11-19T02:13:20;3.30;;;2.20;;
64467;SDS011;50853;46.836;16.820;2023-11-19T02:15:46;4.45;;;2.72;;
64467;SDS011;50853;46.836;16.820;2023-11-19T02:18:18;3.20;;;2.15;;
64467;SDS011;50853;46.836;16.820;2023-11-19T02:20:45;4.28;;;2.70;;
64467;SDS011;50853;46.836;16.820;2023-11-19T02:23:12;3.17;;;2.13;;
64467;SDS011;50853;46.836;16.820;2023-11-19T02:25:39;4.10;;;2.17;;
64467;SDS011;50853;46.836;16.820;2023-11-19T02:28:06;3.10;;;2.00;;
64467;SDS011;50853;46.836;16.820;2023-11-19T02:30:32;3.95;;;2.28;;
64467;SDS011;50853;46.836;16.820;2023-11-19T02:32:59;3.40;;;2.20;;
64467;SDS011;50853;46.836;16.820;2023-11-19T02:35:28;2.85;;;2.25;;
64467;SDS011;50853;46.836;16.820;2023-11-19T02:37:57;3.45;;;2.10;;
64467;SDS011;50853;46.836;16.820;2023-11-19T02:40:25;3.17;;;2.33;;
64467;SDS011;50853;46.836;16.820;2023-11-19T02:42:54;5.50;;;2.33;;
64467;SDS011;50853;46.836;16.820;2023-11-19T02:45:22;3.90;;;2.40;;
64467;SDS011;50853;46.836;16.820;2023-11-19T02:47:48;3.60;;;2.40;;
64467;SDS011;50853;46.836;16.820;2023-11-19T02:50:14;4.65;;;2.05;;
64467;SDS011;50853;46.836;16.820;2023-11-19T02:52:41;3.90;;;2.40;;
64467;SDS011;50853;46.836;16.820;2023-11-19T02:55:08;3.75;;;2.38;;
64467;SDS011;50853;46.836;16.820;2023-11-19T02:57:40;4.93;;;2.67;;
64467;SDS011;50853;46.836;16.820;2023-11-19T03:00:21;2.72;;;2.00;;
64467;SDS011;50853;46.836;16.820;2023-11-19T03:02:59;3.47;;;2.20;;
64467;SDS011;50853;46.836;16.820;2023-11-19T03:05:30;3.83;;;2.30;;
64467;SDS011;50853;46.836;16.820;2023-11-19T03:07:56;3.42;;;2.13;;
64467;SDS011;50853;46.836;16.820;2023-11-19T03:10:22;2.88;;;2.20;;
64467;SDS011;50853;46.836;16.820;2023-11-19T03:12:49;3.83;;;2.40;;
64467;SDS011;50853;46.836;16.820;2023-11-19T03:15:15;3.70;;;2.50;;
64467;SDS011;50853;46.836;16.820;2023-11-19T03:17:41;3.70;;;2.10;;
64467;SDS011;50853;46.836;16.820;2023-11-19T03:20:08;3.92;;;2.42;;
64467;SDS011;50853;46.836;16.820;2023-11-19T03:22:36;4.32;;;2.38;;
64467;SDS011;50853;46.836;16.820;2023-11-19T03:25:03;3.13;;;2.15;;
64467;SDS011;50853;46.836;16.820;2023-11-19T03:27:29;3.45;;;2.35;;
64467;SDS011;50853;46.836;16.820;2023-11-19T03:29:55;3.92;;;2.50;;
64467;SDS011;50853;46.836;16.820;2023-11-19T03:32:21;3.42;;;2.15;;
64467;SDS011;50853;46.836;16.820;2023-11-19T03:34:46;3.00;;;1.98;;
64467;SDS011;50853;46.836;16.820;2023-11-19T03:37:12;3.15;;;2.13;;
64467;SDS011;50853;46.836;16.820;2023-11-19T03:39:42;3.80;;;2.40;;
64467;SDS011;50853;46.836;16.820;2023-11-19T03:42:08;4.10;;;2.50;;
64467;SDS011;50853;46.836;16.820;2023-11-19T03:44:34;3.03;;;2.15;;
64467;SDS011;50853;46.836;16.820;2023-11-19T03:46:59;3.17;;;2.20;;
64467;SDS011;50853;46.836;16.820;2023-11-19T03:49:25;3.50;;;2.33;;
64467;SDS011;50853;46.836;16.820;2023-11-19T03:51:51;3.88;;;2.33;;
64467;SDS011;50853;46.836;16.820;2023-11-19T03:54:17;3.50;;;2.40;;
64467;SDS011;50853;46.836;16.820;2023-11-19T03:56:42;4.35;;;2.30;;
64467;SDS011;50853;46.836;16.820;2023-11-19T03:59:08;3.03;;;2.00;;
64467;SDS011;50853;46.836;16.820;2023-11-19T04:01:34;3.40;;;2.40;;
64467;SDS011;50853;46.836;16.820;2023-11-19T04:04:02;3.55;;;2.20;;
64467;SDS011;50853;46.836;16.820;2023-11-19T04:06:28;4.43;;;2.33;;
64467;SDS011;50853;46.836;16.820;2023-11-19T04:08:54;2.42;;;1.92;;
64467;SDS011;50853;46.836;16.820;2023-11-19T04:11:20;3.58;;;2.40;;
64467;SDS011;50853;46.836;16.820;2023-11-19T04:13:46;3.13;;;2.10;;
64467;SDS011;50853;46.836;16.820;2023-11-19T04:16:12;3.97;;;2.30;;
64467;SDS011;50853;46.836;16.820;2023-11-19T04:18:38;3.97;;;2.20;;
64467;SDS011;50853;46.836;16.820;2023-11-19T04:21:05;3.10;;;2.22;;
64467;SDS011;50853;46.836;16.820;2023-11-19T04:23:32;3.30;;;2.28;;
64467;SDS011;50853;46.836;16.820;2023-11-19T04:25:58;4.65;;;2.30;;
64467;SDS011;50853;46.836;16.820;2023-11-19T04:28:26;3.70;;;2.50;;
64467;SDS011;50853;46.836;16.820;2023-11-19T04:30:52;3.70;;;2.53;;
64467;SDS011;50853;46.836;16.820;2023-11-19T04:33:18;4.28;;;2.33;;
64467;SDS011;50853;46.836;16.820;2023-11-19T04:35:44;3.63;;;2.40;;
64467;SDS011;50853;46.836;16.820;2023-11-19T04:38:10;3.20;;;2.28;;
64467;SDS011;50853;46.836;16.820;2023-11-19T04:40:36;3.47;;;2.28;;
64467;SDS011;50853;46.836;16.820;2023-11-19T04:43:01;4.47;;;2.50;;
64467;SDS011;50853;46.836;16.820;2023-11-19T04:45:27;3.92;;;2.58;;
64467;SDS011;50853;46.836;16.820;2023-11-19T04:47:53;3.40;;;2.40;;
64467;SDS011;50853;46.836;16.820;2023-11-19T04:50:19;3.80;;;2.53;;
64467;SDS011;50853;46.836;16.820;2023-11-19T04:52:45;3.13;;;2.05;;
64467;SDS011;50853;46.836;16.820;2023-11-19T04:55:12;5.53;;;2.40;;
64467;SDS011;50853;46.836;16.820;2023-11-19T04:57:39;4.25;;;2.25;;
64467;SDS011;50853;46.836;16.820;2023-11-19T05:00:05;4.70;;;2.63;;
64467;SDS011;50853;46.836;16.820;2023-11-19T05:04:59;3.65;;;2.25;;
64467;SDS011;50853;46.836;16.820;2023-11-19T05:07:25;5.30;;;2.38;;
64467;SDS011;50853;46.836;16.820;2023-11-19T05:09:51;3.38;;;2.22;;
64467;SDS011;50853;46.836;16.820;2023-11-19T05:12:17;3.38;;;2.40;;
64467;SDS011;50853;46.836;16.820;2023-11-19T05:14:43;3.25;;;2.33;;
64467;SDS011;50853;46.836;16.820;2023-11-19T05:17:14;3.03;;;2.20;;
64467;SDS011;50853;46.836;16.820;2023-11-19T05:19:41;3.07;;;2.23;;
64467;SDS011;50853;46.836;16.820;2023-11-19T05:22:06;3.10;;;2.13;;
64467;SDS011;50853;46.836;16.820;2023-11-19T05:24:32;3.50;;;2.10;;
64467;SDS011;50853;46.836;16.820;2023-11-19T05:26:59;3.60;;;2.20;;
64467;SDS011;50853;46.836;16.820;2023-11-19T05:29:24;3.42;;;2.30;;
64467;SDS011;50853;46.836;16.820;2023-11-19T05:31:50;3.05;;;2.28;;
64467;SDS011;50853;46.836;16.820;2023-11-19T05:34:16;3.40;;;2.40;;
64467;SDS011;50853;46.836;16.820;2023-11-19T05:36:42;3.40;;;2.33;;
64467;SDS011;50853;46.836;16.820;2023-11-19T05:39:08;3.13;;;2.25;;
64467;SDS011;50853;46.836;16.820;2023-11-19T05:41:36;4.43;;;2.40;;
64467;SDS011;50853;46.836;16.820;2023-11-19T05:44:02;3.22;;;2.20;;
64467;SDS011;50853;46.836;16.820;2023-11-19T05:46:28;3.55;;;2.45;;
64467;SDS011;50853;46.836;16.820;2023-11-19T05:48:54;3.60;;;2.45;;
64467;SDS011;50853;46.836;16.820;2023-11-19T05:51:19;3.30;;;2.25;;
64467;SDS011;50853;46.836;16.820;2023-11-19T05:53:45;3.28;;;2.30;;
64467;SDS011;50853;46.836;16.820;2023-11-19T05:56:11;3.30;;;2.33;;
64467;SDS011;50853;46.836;16.820;2023-11-19T05:58:37;3.35;;;2.22;;
64467;SDS011;50853;46.836;16.820;2023-11-19T06:01:04;4.00;;;2.40;;
64467;SDS011;50853;46.836;16.820;2023-11-19T06:03:32;3.08;;;2.00;;
64467;SDS011;50853;46.836;16.820;2023-11-19T06:05:58;4.07;;;2.40;;
64467;SDS011;50853;46.836;16.820;2023-11-19T06:08:24;3.05;;;2.00;;
64467;SDS011;50853;46.836;16.820;2023-11-19T06:10:52;3.20;;;2.30;;
64467;SDS011;50853;46.836;16.820;2023-11-19T06:13:18;3.33;;;2.17;;
64467;SDS011;50853;46.836;16.820;2023-11-19T06:15:44;2.95;;;1.98;;
64467;SDS011;50853;46.836;16.820;2023-11-19T06:18:10;4.50;;;2.33;;
64467;SDS011;50853;46.836;16.820;2023-11-19T06:20:40;4.38;;;2.50;;
64467;SDS011;50853;46.836;16.820;2023-11-19T06:23:06;3.90;;;2.60;;
64467;SDS011;50853;46.836;16.820;2023-11-19T06:25:32;3.03;;;2.00;;
64467;SDS011;50853;46.836;16.820;2023-11-19T06:27:58;4.93;;;2.50;;
64467;SDS011;50853;46.836;16.820;2023-11-19T06:30:24;3.88;;;2.38;;
64467;SDS011;50853;46.836;16.820;2023-11-19T06:32:51;3.47;;;2.20;;
64467;SDS011;50853;46.836;16.820;2023-11-19T06:35:17;3.08;;;2.20;;
64467;SDS011;50853;46.836;16.820;2023-11-19T06:37:42;3.65;;;2.30;;
64467;SDS011;50853;46.836;16.820;2023-11-19T06:40:08;4.03;;;2.60;;
64467;SDS011;50853;46.836;16.820;2023-11-19T06:42:35;3.55;;;2.20;;
64467;SDS011;50853;46.836;16.820;2023-11-19T06:45:01;3.90;;;2.40;;
64467;SDS011;50853;46.836;16.820;2023-11-19T06:47:28;3.60;;;2.65;;
64467;SDS011;50853;46.836;16.820;2023-11-19T06:49:54;3.72;;;2.33;;
64467;SDS011;50853;46.836;16.820;2023-11-19T06:52:20;3.95;;;2.28;;
64467;SDS011;50853;46.836;16.820;2023-11-19T06:54:46;3.15;;;2.22;;
64467;SDS011;50853;46.836;16.820;2023-11-19T06:57:12;3.28;;;2.22;;
64467;SDS011;50853;46.836;16.820;2023-11-19T06:59:38;3.70;;;2.17;;
64467;SDS011;50853;46.836;16.820;2023-11-19T07:02:04;3.38;;;2.28;;
64467;SDS011;50853;46.836;16.820;2023-11-19T07:04:31;2.97;;;2.28;;
64467;SDS011;50853;46.836;16.820;2023-11-19T07:06:58;3.42;;;2.55;;
64467;SDS011;50853;46.836;16.820;2023-11-19T07:09:27;3.85;;;2.50;;
64467;SDS011;50853;46.836;16.820;2023-11-19T07:11:53;3.70;;;2.47;;
64467;SDS011;50853;46.836;16.820;2023-11-19T07:14:19;3.20;;;2.10;;
64467;SDS011;50853;46.836;16.820;2023-11-19T07:16:45;3.45;;;2.35;;
64467;SDS011;50853;46.836;16.820;2023-11-19T07:19:15;3.95;;;2.55;;
64467;SDS011;50853;46.836;16.820;2023-11-19T07:21:41;3.90;;;2.10;;
64467;SDS011;50853;46.836;16.820;2023-11-19T07:24:09;3.67;;;2.40;;
64467;SDS011;50853;46.836;16.820;2023-11-19T07:26:42;3.25;;;2.20;;
64467;SDS011;50853;46.836;16.820;2023-11-19T07:29:09;4.35;;;2.03;;
64467;SDS011;50853;46.836;16.820;2023-11-19T07:31:36;3.40;;;2.35;;
64467;SDS011;50853;46.836;16.820;2023-11-19T07:34:02;3.85;;;2.20;;
64467;SDS011;50853;46.836;16.820;2023-11-19T07:36:28;3.47;;;2.57;;
64467;SDS011;50853;46.836;16.820;2023-11-19T07:38:54;3.42;;;2.47;;
64467;SDS011;50853;46.836;16.820;2023-11-19T07:41:23;4.65;;;2.63;;
64467;SDS011;50853;46.836;16.820;2023-11-19T07:46:16;3.30;;;2.22;;
64467;SDS011;50853;46.836;16.820;2023-11-19T07:48:45;4.45;;;2.05;;
64467;SDS011;50853;46.836;16.820;2023-11-19T07:53:38;2.87;;;1.93;;
64467;SDS011;50853;46.836;16.820;2023-11-19T07:58:32;3.53;;;2.22;;
64467;SDS011;50853;46.836;16.820;2023-11-19T08:00:58;4.45;;;2.13;;
64467;SDS011;50853;46.836;16.820;2023-11-19T08:03:24;3.53;;;2.27;;
64467;SDS011;50853;46.836;16.820;2023-11-19T08:05:50;3.47;;;2.40;;
64467;SDS011;50853;46.836;16.820;2023-11-19T08:08:16;3.45;;;2.22;;
64467;SDS011;50853;46.836;16.820;2023-11-19T08:10:42;3.13;;;2.30;;
64467;SDS011;50853;46.836;16.820;2023-11-19T08:13:10;4.32;;;2.50;;
64467;SDS011;50853;46.836;16.820;2023-11-19T08:15:36;3.50;;;2.10;;
64467;SDS011;50853;46.836;16.820;2023-11-19T08:18:02;2.85;;;2.03;;
64467;SDS011;50853;46.836;16.820;2023-11-19T08:20:28;3.65;;;2.30;;
64467;SDS011;50853;46.836;16.820;2023-11-19T08:22:54;3.85;;;2.60;;
64467;SDS011;50853;46.836;16.820;2023-11-19T08:25:19;4.05;;;2.53;;
64467;SDS011;50853;46.836;16.820;2023-11-19T08:27:45;3.50;;;2.35;;
64467;SDS011;50853;46.836;16.820;2023-11-19T08:30:11;3.22;;;2.20;;
64467;SDS011;50853;46.836;16.820;2023-11-19T08:32:38;5.20;;;2.60;;
64467;SDS011;50853;46.836;16.820;2023-11-19T08:35:04;4.05;;;2.88;;
64467;SDS011;50853;46.836;16.820;2023-11-19T08:37:30;4.43;;;2.57;;
64467;SDS011;50853;46.836;16.820;2023-11-19T08:39:56;2.80;;;2.10;;
64467;SDS011;50853;46.836;16.820;2023-11-19T08:42:22;3.83;;;2.40;;
64467;SDS011;50853;46.836;16.820;2023-11-19T08:44:51;4.00;;;2.47;;
64467;SDS011;50853;46.836;16.820;2023-11-19T08:47:19;3.55;;;2.28;;
64467;SDS011;50853;46.836;16.820;2023-11-19T08:49:47;2.83;;;1.98;;
64467;SDS011;50853;46.836;16.820;2023-11-19T08:52:13;5.18;;;2.35;;
64467;SDS011;50853;46.836;16.820;2023-11-19T08:54:42;4.72;;;2.78;;
64467;SDS011;50853;46.836;16.820;2023-11-19T08:57:08;3.85;;;2.15;;
64467;SDS011;50853;46.836;16.820;2023-11-19T08:59:34;3.13;;;2.08;;
64467;SDS011;50853;46.836;16.820;2023-11-19T09:02:00;3.63;;;2.30;;
64467;SDS011;50853;46.836;16.820;2023-11-19T09:04:27;4.90;;;2.55;;
64467;SDS011;50853;46.836;16.820;2023-11-19T09:06:53;2.95;;;2.10;;
64467;SDS011;50853;46.836;16.820;2023-11-19T09:09:20;3.40;;;2.35;;
64467;SDS011;50853;46.836;16.820;2023-11-19T09:11:45;4.07;;;2.38;;
64467;SDS011;50853;46.836;16.820;2023-11-19T09:14:11;3.00;;;2.40;;
64467;SDS011;50853;46.836;16.820;2023-11-19T09:16:37;3.20;;;2.17;;
64467;SDS011;50853;46.836;16.820;2023-11-19T09:19:03;3.35;;;2.22;;
64467;SDS011;50853;46.836;16.820;2023-11-19T09:21:29;3.20;;;2.15;;
64467;SDS011;50853;46.836;16.820;2023-11-19T09:23:55;3.42;;;2.28;;
64467;SDS011;50853;46.836;16.820;2023-11-19T09:26:21;3.60;;;2.25;;
64467;SDS011;50853;46.836;16.820;2023-11-19T09:28:46;3.72;;;2.20;;
64467;SDS011;50853;46.836;16.820;2023-11-19T09:31:16;3.40;;;2.00;;
64467;SDS011;50853;46.836;16.820;2023-11-19T09:33:42;3.75;;;2.15;;
64467;SDS011;50853;46.836;16.820;2023-11-19T09:36:09;2.63;;;2.00;;
64467;SDS011;50853;46.836;16.820;2023-11-19T09:38:38;3.67;;;2.30;;
64467;SDS011;50853;46.836;16.820;2023-11-19T09:41:09;3.80;;;2.30;;
64467;SDS011;50853;46.836;16.820;2023-11-19T09:43:37;4.57;;;2.40;;
64467;SDS011;50853;46.836;16.820;2023-11-19T09:46:05;3.42;;;2.15;;
64467;SDS011;50853;46.836;16.820;2023-11-19T09:48:35;3.40;;;2.13;;
64467;SDS011;50853;46.836;16.820;2023-11-19T09:51:02;4.55;;;2.45;;
64467;SDS011;50853;46.836;16.820;2023-11-19T09:53:29;4.18;;;2.22;;
64467;SDS011;50853;46.836;16.820;2023-11-19T09:55:56;3.75;;;2.22;;
64467;SDS011;50853;46.836;16.820;2023-11-19T10:00:49;3.20;;;1.95;;
64467;SDS011;50853;46.836;16.820;2023-11-19T10:03:17;3.55;;;2.13;;
64467;SDS011;50853;46.836;16.820;2023-11-19T10:05:43;3.70;;;2.30;;
64467;SDS011;50853;46.836;16.820;2023-11-19T10:08:09;3.90;;;2.40;;
64467;SDS011;50853;46.836;16.820;2023-11-19T10:10:36;3.47;;;2.25;;
64467;SDS011;50853;46.836;16.820;2023-11-19T10:13:02;4.43;;;2.53;;
64467;SDS011;50853;46.836;16.820;2023-11-19T10:15:28;3.10;;;2.10;;
64467;SDS011;50853;46.836;16.820;2023-11-19T10:18:01;3.65;;;2.10;;
64467;SDS011;50853;46.836;16.820;2023-11-19T10:20:34;3.78;;;2.22;;
64467;SDS011;50853;46.836;16.820;2023-11-19T10:23:06;6.45;;;2.25;;
64467;SDS011;50853;46.836;16.820;2023-11-19T10:25:33;4.05;;;2.25;;
64467;SDS011;50853;46.836;16.820;2023-11-19T10:27:59;3.90;;;2.42;;
64467;SDS011;50853;46.836;16.820;2023-11-19T10:30:26;3.00;;;2.00;;
64467;SDS011;50853;46.836;16.820;2023-11-19T10:38:21;3.50;;;2.40;;
64467;SDS011;50853;46.836;16.820;2023-11-19T10:40:49;3.30;;;2.08;;
64467;SDS011;50853;46.836;16.820;2023-11-19T10:43:16;4.10;;;2.15;;
64467;SDS011;50853;46.836;16.820;2023-11-19T10:45:42;3.50;;;2.33;;
64467;SDS011;50853;46.836;16.820;2023-11-19T10:48:09;4.95;;;2.10;;
64467;SDS011;50853;46.836;16.820;2023-11-19T10:50:35;3.15;;;1.92;;
64467;SDS011;50853;46.836;16.820;2023-11-19T10:53:02;3.25;;;2.25;;
64467;SDS011;50853;46.836;16.820;2023-11-19T10:57:59;4.60;;;1.90;;
64467;SDS011;50853;46.836;16.820;2023-11-19T11:00:30;3.35;;;2.10;;
64467;SDS011;50853;46.836;16.820;2023-11-19T11:03:04;3.78;;;2.58;;
64467;SDS011;50853;46.836;16.820;2023-11-19T11:05:40;3.90;;;2.50;;
64467;SDS011;50853;46.836;16.820;2023-11-19T11:08:07;3.20;;;2.00;;
64467;SDS011;50853;46.836;16.820;2023-11-19T11:20:17;2.75;;;1.80;;
64467;SDS011;50853;46.836;16.820;2023-11-19T11:23:03;3.10;;;2.10;;
64467;SDS011;50853;46.836;16.820;2023-11-19T11:36:27;3.15;;;2.00;;
64467;SDS011;50853;46.836;16.820;2023-11-19T11:38:58;3.25;;;2.10;;
64467;SDS011;50853;46.836;16.820;2023-11-19T11:41:32;2.88;;;1.92;;
64467;SDS011;50853;46.836;16.820;2023-11-19T11:43:58;4.05;;;2.20;;
64467;SDS011;50853;46.836;16.820;2023-11-19T11:49:01;3.38;;;2.10;;
64467;SDS011;50853;46.836;16.820;2023-11-19T11:59:52;3.58;;;2.20;;
64467;SDS011;50853;46.836;16.820;2023-11-19T12:02:21;2.65;;;1.90;;
64467;SDS011;50853;46.836;16.820;2023-11-19T12:04:51;3.35;;;2.30;;
64467;SDS011;50853;46.836;16.820;2023-11-19T12:07:19;3.53;;;1.98;;
64467;SDS011;50853;46.836;16.820;2023-11-19T12:09:53;2.80;;;1.90;;
64467;SDS011;50853;46.836;16.820;2023-11-19T12:12:32;3.65;;;2.13;;
64467;SDS011;50853;46.836;16.820;2023-11-19T12:17:36;3.72;;;2.67;;
64467;SDS011;50853;46.836;16.820;2023-11-19T12:20:09;2.95;;;2.03;;
64467;SDS011;50853;46.836;16.820;2023-11-19T12:22:39;3.88;;;2.22;;
64467;SDS011;50853;46.836;16.820;2023-11-19T12:25:07;2.97;;;1.90;;
64467;SDS011;50853;46.836;16.820;2023-11-19T12:27:44;2.67;;;1.80;;
64467;SDS011;50853;46.836;16.820;2023-11-19T12:30:18;3.85;;;2.13;;
64467;SDS011;50853;46.836;16.820;2023-11-19T12:32:50;3.35;;;2.20;;
64467;SDS011;50853;46.836;16.820;2023-11-19T12:35:18;4.25;;;2.42;;
64467;SDS011;50853;46.836;16.820;2023-11-19T12:37:45;3.00;;;2.15;;
64467;SDS011;50853;46.836;16.820;2023-11-19T12:42:46;3.03;;;1.98;;
64467;SDS011;50853;46.836;16.820;2023-11-19T12:45:15;2.67;;;1.75;;
64467;SDS011;50853;46.836;16.820;2023-11-19T12:47:42;3.13;;;1.90;;
64467;SDS011;50853;46.836;16.820;2023-11-19T12:50:09;3.25;;;2.00;;
64467;SDS011;50853;46.836;16.820;2023-11-19T12:52:36;2.70;;;1.90;;
64467;SDS011;50853;46.836;16.820;2023-11-19T12:55:06;3.47;;;1.90;;
64467;SDS011;50853;46.836;16.820;2023-11-19T12:57:53;3.92;;;2.33;;
64467;SDS011;50853;46.836;16.820;2023-11-19T13:00:23;2.97;;;1.90;;
64467;SDS011;50853;46.836;16.820;2023-11-19T13:02:52;2.88;;;2.10;;
64467;SDS011;50853;46.836;16.820;2023-11-19T13:10:26;2.95;;;2.00;;
64467;SDS011;50853;46.836;16.820;2023-11-19T13:13:01;2.92;;;1.98;;
64467;SDS011;50853;46.836;16.820;2023-11-19T13:15:29;44.10;;;4.57;;
64467;SDS011;50853;46.836;16.820;2023-11-19T13:17:55;64.50;;;4.80;;
64467;SDS011;50853;46.836;16.820;2023-11-19T13:20:21;89.57;;;6.35;;
64467;SDS011;50853;46.836;16.820;2023-11-19T13:23:20;52.50;;;5.90;;
64467;SDS011;50853;46.836;16.820;2023-11-19T13:25:40;61.92;;;7.07;;
64467;SDS011;50853;46.836;16.820;2023-11-19T13:28:06;52.55;;;6.40;;
64467;SDS011;50853;46.836;16.820;2023-11-19T13:30:32;56.45;;;5.57;;
64467;SDS011;50853;46.836;16.820;2023-11-19T13:32:58;97.43;;;8.52;;
64467;SDS011;50853;46.836;16.820;2023-11-19T13:35:23;89.97;;;7.15;;
64467;SDS011;50853;46.836;16.820;2023-11-19T13:37:49;52.70;;;6.43;;
64467;SDS011;50853;46.836;16.820;2023-11-19T13:40:16;31.33;;;4.65;;
64467;SDS011;50853;46.836;16.820;2023-11-19T13:42:42;44.08;;;7.22;;
64467;SDS011;50853;46.836;16.820;2023-11-19T13:45:12;29.80;;;5.93;;
64467;SDS011;50853;46.836;16.820;2023-11-19T13:47:39;53.47;;;6.25;;
64467;SDS011;50853;46.836;16.820;2023-11-19T13:50:09;67.30;;;6.20;;
64467;SDS011;50853;46.836;16.820;2023-11-19T13:52:39;77.18;;;8.52;;
64467;SDS011;50853;46.836;16.820;2023-11-19T13:55:08;51.65;;;6.68;;
64467;SDS011;50853;46.836;16.820;2023-11-19T13:57:41;45.08;;;5.50;;
64467;SDS011;50853;46.836;16.820;2023-11-19T14:00:08;61.08;;;7.10;;
64467;SDS011;50853;46.836;16.820;2023-11-19T14:02:41;77.03;;;7.68;;
64467;SDS011;50853;46.836;16.820;2023-11-19T14:05:08;55.70;;;6.47;;
64467;SDS011;50853;46.836;16.820;2023-11-19T14:07:36;48.35;;;7.93;;
64467;SDS011;50853;46.836;16.820;2023-11-19T14:10:02;73.72;;;6.13;;
64467;SDS011;50853;46.836;16.820;2023-11-19T14:12:28;42.05;;;6.07;;
64467;SDS011;50853;46.836;16.820;2023-11-19T14:14:54;40.63;;;6.78;;
64467;SDS011;50853;46.836;16.820;2023-11-19T14:17:20;51.50;;;6.93;;
64467;SDS011;50853;46.836;16.820;2023-11-19T14:19:46;50.35;;;5.80;;
64467;SDS011;50853;46.836;16.820;2023-11-19T14:22:11;62.42;;;7.95;;
64467;SDS011;50853;46.836;16.820;2023-11-19T14:24:38;33.83;;;5.68;;
64467;SDS011;50853;46.836;16.820;2023-11-19T14:27:05;37.60;;;6.55;;
64467;SDS011;50853;46.836;16.820;2023-11-19T14:29:31;39.58;;;6.35;;
64467;SDS011;50853;46.836;16.820;2023-11-19T14:31:57;50.33;;;8.07;;
64467;SDS011;50853;46.836;16.820;2023-11-19T14:34:24;55.75;;;6.88;;
64467;SDS011;50853;46.836;16.820;2023-11-19T14:36:51;50.53;;;6.35;;
64467;SDS011;50853;46.836;16.820;2023-11-19T14:39:19;50.60;;;6.95;;
64467;SDS011;50853;46.836;16.820;2023-11-19T14:41:44;47.05;;;7.25;;
64467;SDS011;50853;46.836;16.820;2023-11-19T14:44:10;48.72;;;6.40;;
64467;SDS011;50853;46.836;16.820;2023-11-19T14:46:36;39.08;;;6.00;;
64467;SDS011;50853;46.836;16.820;2023-11-19T14:49:02;59.75;;;8.55;;
64467;SDS011;50853;46.836;16.820;2023-11-19T14:51:35;49.85;;;6.90;;
64467;SDS011;50853;46.836;16.820;2023-11-19T14:54:03;101.13;;;9.15;;
64467;SDS011;50853;46.836;16.820;2023-11-19T14:56:29;82.70;;;9.50;;
64467;SDS011;50853;46.836;16.820;2023-11-19T14:58:55;70.80;;;7.70;;
64467;SDS011;50853;46.836;16.820;2023-11-19T15:01:21;84.60;;;9.07;;
64467;SDS011;50853;46.836;16.820;2023-11-19T15:03:47;49.50;;;6.70;;
64467;SDS011;50853;46.836;16.820;2023-11-19T15:06:13;47.63;;;7.03;;
64467;SDS011;50853;46.836;16.820;2023-11-19T15:08:40;74.13;;;7.45;;
64467;SDS011;50853;46.836;16.820;2023-11-19T15:11:07;58.42;;;7.57;;
64467;SDS011;50853;46.836;16.820;2023-11-19T15:13:37;44.08;;;5.85;;
64467;SDS011;50853;46.836;16.820;2023-11-19T15:16:03;47.03;;;6.60;;
64467;SDS011;50853;46.836;16.820;2023-11-19T15:18:36;35.60;;;5.82;;
64467;SDS011;50853;46.836;16.820;2023-11-19T15:21:02;59.20;;;7.03;;
64467;SDS011;50853;46.836;16.820;2023-11-19T15:23:27;34.85;;;6.43;;
64467;SDS011;50853;46.836;16.820;2023-11-19T15:25:54;41.85;;;7.03;;
64467;SDS011;50853;46.836;16.820;2023-11-19T15:28:20;42.08;;;5.30;;
64467;SDS011;50853;46.836;16.820;2023-11-19T15:30:46;37.90;;;6.20;;
64467;SDS011;50853;46.836;16.820;2023-11-19T15:33:13;39.63;;;6.37;;
64467;SDS011;50853;46.836;16.820;2023-11-19T15:35:39;27.95;;;6.13;;
64467;SDS011;50853;46.836;16.820;2023-11-19T15:38:05;21.98;;;4.55;;
64467;SDS011;50853;46.836;16.820;2023-11-19T15:40:34;25.08;;;5.07;;